createdAt,value
2019-03-11T00:00:11.226Z,56.85
2019-03-11T00:01:11.278Z,57.13
2019-03-11T00:03:04.264Z,57.13
2019-03-11T00:04:04.311Z,56.94
2019-03-11T00:05:57.280Z,57.25
2019-03-11T00:06:57.342Z,57.16
2019-03-11T00:08:50.316Z,57.82
2019-03-11T00:09:50.364Z,57.73
2019-03-11T00:11:43.342Z,58.01
2019-03-11T00:12:43.387Z,57.92
2019-03-11T00:14:36.374Z,57.54
2019-03-11T00:15:36.437Z,57.73
2019-03-11T00:17:29.414Z,57.82
2019-03-11T00:18:29.450Z,57.82
2019-03-11T00:20:22.420Z,57.73
2019-03-11T00:21:22.475Z,57.64
2019-03-11T00:23:15.456Z,57.82
2019-03-11T00:24:15.502Z,57.35
2019-03-11T00:26:08.487Z,57.64
2019-03-11T00:27:08.538Z,57.64
2019-03-11T00:29:01.524Z,57.82
2019-03-11T00:30:01.568Z,58.11
2019-03-11T00:31:54.565Z,57.82
2019-03-11T00:32:54.606Z,57.73
2019-03-11T00:34:47.577Z,58.86
2019-03-11T00:35:47.631Z,59.25
2019-03-11T00:37:40.613Z,58.67
2019-03-11T00:38:40.657Z,58.77
2019-03-11T00:40:33.634Z,59.05
2019-03-11T00:41:33.683Z,59.72
2019-03-11T00:43:26.665Z,59.44
2019-03-11T00:44:26.712Z,59.34
2019-03-11T00:46:19.690Z,59.72
2019-03-11T00:47:19.746Z,59.37
2019-03-11T00:49:12.731Z,58.77
2019-03-11T00:50:12.778Z,58.77
2019-03-11T00:52:05.784Z,57.82
2019-03-11T00:53:05.807Z,57.54
2019-03-11T00:54:58.783Z,57.44
2019-03-11T00:55:58.825Z,56.59
2019-03-11T00:57:51.807Z,56.49
2019-03-11T00:58:51.863Z,55.45
2019-03-11T01:00:44.833Z,54.98
2019-03-11T01:01:44.892Z,54.60
2019-03-11T01:03:37.873Z,53.75
2019-03-11T01:04:37.920Z,53.08
2019-03-11T01:06:30.894Z,52.98
2019-03-11T01:07:30.947Z,53.27
2019-03-11T01:09:23.934Z,52.80
2019-03-11T01:10:23.975Z,52.80
2019-03-11T01:12:16.957Z,52.48
2019-03-11T01:13:17.016Z,52.68
2019-03-11T01:15:09.979Z,52.58
2019-03-11T01:16:10.032Z,52.20
2019-03-11T01:18:03.018Z,52.39
2019-03-11T01:19:03.061Z,52.29
2019-03-11T01:20:56.036Z,52.58
2019-03-11T01:21:56.106Z,52.48
2019-03-11T01:23:49.068Z,52.58
2019-03-11T01:24:49.120Z,53.15
2019-03-11T01:26:42.093Z,52.58
2019-03-11T01:27:42.148Z,53.15
2019-03-11T01:29:35.128Z,53.06
2019-03-11T01:30:35.175Z,53.15
2019-03-11T01:32:28.178Z,53.15
2019-03-11T01:33:28.226Z,53.25
2019-03-11T01:35:21.195Z,53.53
2019-03-11T01:36:21.250Z,53.44
2019-03-11T01:38:14.234Z,53.53
2019-03-11T01:39:14.278Z,53.34
2019-03-11T01:41:07.247Z,53.44
2019-03-11T01:42:07.310Z,53.44
2019-03-11T01:44:00.296Z,53.44
2019-03-11T01:45:00.442Z,53.44
2019-03-11T01:46:53.318Z,54.00
2019-03-11T01:47:53.380Z,53.91
2019-03-11T01:49:46.374Z,54.38
2019-03-11T01:50:46.400Z,54.57
2019-03-11T01:52:39.384Z,55.36
2019-03-11T01:53:39.429Z,56.02
2019-03-11T01:55:32.400Z,58.01
2019-03-11T01:56:32.469Z,57.73
2019-03-11T01:58:25.459Z,59.34
2019-03-11T01:59:25.482Z,58.96
2019-03-11T02:01:18.490Z,58.96
2019-03-11T02:02:18.507Z,59.15
2019-03-11T02:04:11.498Z,58.77
2019-03-11T02:05:11.550Z,58.39
2019-03-11T02:07:04.514Z,58.01
2019-03-11T02:08:04.568Z,58.20
2019-03-11T02:09:57.569Z,58.29
2019-03-11T02:10:57.599Z,57.54
2019-03-11T02:12:50.578Z,57.92
2019-03-11T02:13:50.625Z,58.20
2019-03-11T02:15:43.601Z,57.73
2019-03-11T02:16:43.661Z,58.29
2019-03-11T02:18:36.634Z,57.64
2019-03-11T02:19:36.726Z,57.64
2019-03-11T02:21:29.660Z,57.35
2019-03-11T02:22:29.719Z,57.06
2019-03-11T02:24:22.703Z,56.78
2019-03-11T02:25:22.751Z,56.87
2019-03-11T02:27:15.720Z,56.68
2019-03-11T02:28:15.775Z,56.78
2019-03-11T02:30:08.755Z,56.87
2019-03-11T02:31:08.804Z,56.59
2019-03-11T02:33:01.794Z,56.30
2019-03-11T02:34:01.852Z,56.21
2019-03-11T02:35:54.809Z,56.21
2019-03-11T02:36:54.862Z,55.93
2019-03-11T02:38:47.852Z,55.55
2019-03-11T02:39:47.895Z,55.62
2019-03-11T02:41:41.379Z,54.95
2019-03-11T02:42:41.428Z,54.95
2019-03-11T02:44:34.409Z,54.95
2019-03-11T02:45:34.456Z,54.95
2019-03-11T02:47:27.429Z,54.86
2019-03-11T02:48:27.483Z,54.86
2019-03-11T02:50:20.468Z,55.24
2019-03-11T02:51:20.512Z,55.24
2019-03-11T02:53:13.500Z,55.62
2019-03-11T02:54:13.545Z,55.62
2019-03-11T02:56:06.518Z,55.43
2019-03-11T02:57:06.588Z,55.14
2019-03-11T02:58:59.556Z,55.05
2019-03-11T02:59:59.628Z,54.86
2019-03-11T03:01:52.579Z,54.38
2019-03-11T03:02:52.640Z,54.47
2019-03-11T03:04:45.613Z,54.10
2019-03-11T03:05:45.694Z,53.91
2019-03-11T03:07:38.632Z,53.53
2019-03-11T03:08:38.687Z,53.53
2019-03-11T03:10:31.664Z,54.00
2019-03-11T03:11:31.712Z,53.91
2019-03-11T03:13:24.695Z,54.10
2019-03-11T03:14:24.742Z,54.00
2019-03-11T03:16:17.718Z,53.53
2019-03-11T03:17:17.774Z,53.34
2019-03-11T03:19:10.753Z,53.81
2019-03-11T03:20:10.799Z,53.53
2019-03-11T03:22:03.773Z,53.81
2019-03-11T03:23:03.829Z,53.53
2019-03-11T03:24:56.809Z,54.10
2019-03-11T03:25:56.877Z,54.00
2019-03-11T03:27:50.020Z,54.00
2019-03-11T03:28:49.886Z,53.91
2019-03-11T03:30:42.872Z,54.19
2019-03-11T03:31:42.949Z,54.38
2019-03-11T03:33:35.912Z,54.38
2019-03-11T03:34:35.951Z,54.57
2019-03-11T03:36:28.946Z,54.38
2019-03-11T03:37:29.003Z,54.28
2019-03-11T03:39:21.984Z,54.38
2019-03-11T03:40:22.030Z,54.47
2019-03-11T03:42:15.524Z,54.38
2019-03-11T03:43:15.571Z,54.57
2019-03-11T03:45:08.543Z,54.86
2019-03-11T03:46:18.788Z,54.67
2019-03-11T03:48:01.567Z,54.57
2019-03-11T03:49:01.614Z,54.28
2019-03-11T03:50:54.600Z,54.57
2019-03-11T03:51:54.639Z,54.38
2019-03-11T03:53:47.675Z,54.28
2019-03-11T03:54:47.672Z,54.19
2019-03-11T03:56:40.647Z,54.10
2019-03-11T03:57:40.704Z,53.91
2019-03-11T03:59:33.680Z,54.19
2019-03-11T04:00:33.728Z,54.38
2019-03-11T04:02:26.703Z,54.47
2019-03-11T04:03:26.764Z,55.05
2019-03-11T04:05:20.590Z,55.14
2019-03-11T04:06:20.637Z,55.17
2019-03-11T04:08:13.612Z,55.07
2019-03-11T04:09:13.669Z,54.98
2019-03-11T04:11:06.645Z,55.26
2019-03-11T04:12:06.691Z,55.17
2019-03-11T04:13:59.676Z,55.26
2019-03-11T04:14:59.727Z,54.88
2019-03-11T04:16:52.698Z,54.88
2019-03-11T04:17:52.747Z,55.07
2019-03-11T04:19:45.746Z,55.26
2019-03-11T04:20:45.781Z,55.52
2019-03-11T04:22:38.789Z,55.71
2019-03-11T04:23:38.840Z,55.14
2019-03-11T04:25:31.827Z,54.95
2019-03-11T04:26:31.865Z,54.95
2019-03-11T04:28:24.834Z,55.07
2019-03-11T04:29:24.892Z,55.64
2019-03-11T04:31:17.864Z,55.45
2019-03-11T04:32:17.909Z,55.62
2019-03-11T04:34:10.889Z,55.43
2019-03-11T04:35:10.936Z,55.05
2019-03-11T04:37:03.919Z,56.02
2019-03-11T04:38:03.974Z,55.80
2019-03-11T04:39:56.974Z,55.99
2019-03-11T04:40:57.022Z,55.33
2019-03-11T04:42:50.509Z,55.05
2019-03-11T04:43:50.557Z,54.67
2019-03-11T04:45:43.539Z,54.86
2019-03-11T04:46:43.590Z,54.57
2019-03-11T04:48:36.555Z,54.10
2019-03-11T04:49:36.609Z,53.91
2019-03-11T04:51:29.588Z,53.72
2019-03-11T04:52:29.634Z,53.72
2019-03-11T04:54:22.619Z,53.53
2019-03-11T04:55:22.661Z,53.81
2019-03-11T04:57:15.634Z,54.57
2019-03-11T04:58:15.700Z,54.57
2019-03-11T05:00:08.687Z,54.38
2019-03-11T05:01:08.724Z,54.19
2019-03-11T05:03:01.701Z,54.19
2019-03-11T05:04:01.749Z,54.38
2019-03-11T05:05:54.731Z,54.10
2019-03-11T05:06:54.780Z,54.10
2019-03-11T05:08:47.742Z,54.47
2019-03-11T05:09:47.804Z,55.05
2019-03-11T05:11:40.784Z,55.52
2019-03-11T05:12:40.830Z,55.99
2019-03-11T05:14:33.811Z,55.90
2019-03-11T05:15:33.864Z,55.99
2019-03-11T05:17:26.836Z,55.90
2019-03-11T05:18:26.892Z,55.43
2019-03-11T05:20:19.880Z,55.62
2019-03-11T05:21:19.987Z,55.90
2019-03-11T05:23:12.907Z,56.09
2019-03-11T05:24:12.959Z,55.80
2019-03-11T05:26:05.946Z,56.27
2019-03-11T05:27:05.997Z,56.46
2019-03-11T05:28:58.969Z,56.75
2019-03-11T05:29:59.023Z,57.04
2019-03-11T05:31:52.003Z,57.04
2019-03-11T05:32:52.049Z,56.56
2019-03-11T05:34:45.043Z,56.56
2019-03-11T05:35:45.080Z,56.66
2019-03-11T05:37:38.056Z,56.56
2019-03-11T05:38:38.115Z,56.56
2019-03-11T05:40:31.091Z,55.99
2019-03-11T05:41:31.134Z,55.99
2019-03-11T05:43:24.124Z,55.24
2019-03-11T05:44:24.168Z,54.86
2019-03-11T05:46:17.147Z,54.86
2019-03-11T05:47:17.192Z,54.38
2019-03-11T05:49:10.210Z,54.38
2019-03-11T05:50:10.235Z,54.38
2019-03-11T05:52:03.218Z,53.63
2019-03-11T05:53:03.266Z,53.53
2019-03-11T05:54:56.253Z,53.91
2019-03-11T05:55:56.350Z,53.53
2019-03-11T05:57:49.275Z,53.44
2019-03-11T05:58:49.327Z,53.44
2019-03-11T06:00:42.308Z,54.38
2019-03-11T06:01:42.354Z,54.19
2019-03-11T06:03:35.331Z,54.38
2019-03-11T06:04:35.385Z,54.38
2019-03-11T06:06:28.375Z,54.47
2019-03-11T06:07:28.426Z,54.86
2019-03-11T06:09:21.401Z,54.38
2019-03-11T06:10:21.460Z,54.47
2019-03-11T06:12:14.437Z,54.00
2019-03-11T06:13:14.483Z,54.03
2019-03-11T06:15:07.466Z,53.44
2019-03-11T06:16:07.514Z,53.81
2019-03-11T06:18:00.499Z,52.77
2019-03-11T06:19:00.553Z,52.87
2019-03-11T06:20:53.534Z,52.48
2019-03-11T06:21:53.580Z,52.58
2019-03-11T06:23:46.554Z,52.77
2019-03-11T06:24:46.607Z,52.77
2019-03-11T06:26:39.609Z,52.87
2019-03-11T06:27:39.634Z,52.68
2019-03-11T06:29:32.610Z,52.77
2019-03-11T06:30:32.663Z,52.77
2019-03-11T06:32:25.666Z,52.96
2019-03-11T06:33:25.698Z,52.77
2019-03-11T06:35:18.687Z,52.96
2019-03-11T06:36:18.758Z,52.96
2019-03-11T06:38:11.727Z,52.96
2019-03-11T06:39:11.783Z,52.96
2019-03-11T06:41:04.768Z,52.96
2019-03-11T06:42:04.815Z,53.15
2019-03-11T06:43:57.801Z,53.06
2019-03-11T06:44:57.855Z,53.06
2019-03-11T06:46:50.836Z,52.87
2019-03-11T06:47:50.881Z,52.98
2019-03-11T06:49:43.876Z,53.06
2019-03-11T06:50:43.928Z,53.72
2019-03-11T06:52:36.904Z,53.56
2019-03-11T06:53:36.955Z,53.84
2019-03-11T06:55:29.943Z,53.06
2019-03-11T06:56:29.985Z,53.44
2019-03-11T06:58:22.966Z,53.06
2019-03-11T06:59:23.021Z,52.96
2019-03-11T07:01:16.008Z,53.15
2019-03-11T07:02:16.050Z,53.06
2019-03-11T07:04:09.030Z,52.96
2019-03-11T07:05:19.264Z,52.68
2019-03-11T07:07:02.071Z,52.77
2019-03-11T07:08:02.134Z,52.87
2019-03-11T07:09:55.103Z,52.89
2019-03-11T07:10:55.151Z,52.98
2019-03-11T07:12:48.151Z,53.18
2019-03-11T07:13:48.227Z,53.56
2019-03-11T07:15:41.180Z,53.75
2019-03-11T07:16:41.233Z,54.50
2019-03-11T07:18:34.208Z,53.75
2019-03-11T07:19:34.257Z,54.50
2019-03-11T07:21:27.230Z,53.56
2019-03-11T07:22:27.284Z,53.63
2019-03-11T07:24:20.267Z,52.89
2019-03-11T07:25:20.312Z,53.18
2019-03-11T07:27:13.297Z,53.25
2019-03-11T07:28:13.351Z,53.15
2019-03-11T07:30:06.338Z,52.48
2019-03-11T07:31:06.385Z,52.11
2019-03-11T07:32:59.357Z,52.11
2019-03-11T07:33:59.410Z,51.92
2019-03-11T07:35:52.401Z,51.92
2019-03-11T07:36:52.438Z,51.73
2019-03-11T07:38:45.425Z,51.73
2019-03-11T07:39:45.464Z,51.73
2019-03-11T07:41:38.456Z,51.92
2019-03-11T07:42:38.508Z,51.73
2019-03-11T07:44:31.491Z,51.64
2019-03-11T07:45:31.536Z,51.73
2019-03-11T07:47:24.517Z,52.20
2019-03-11T07:48:24.571Z,51.82
2019-03-11T07:50:17.552Z,52.11
2019-03-11T07:51:17.602Z,52.29
2019-03-11T07:53:10.578Z,51.95
2019-03-11T07:54:10.632Z,51.95
2019-03-11T07:56:03.611Z,52.80
2019-03-11T07:57:03.659Z,52.04
2019-03-11T07:58:56.649Z,52.39
2019-03-11T07:59:56.695Z,51.95
2019-03-11T08:01:49.677Z,52.70
2019-03-11T08:02:49.729Z,52.51
2019-03-11T08:04:42.710Z,52.20
2019-03-11T08:05:42.750Z,52.11
2019-03-11T08:07:35.726Z,52.11
2019-03-11T08:08:35.887Z,52.20
2019-03-11T08:10:28.759Z,52.11
2019-03-11T08:11:29.073Z,51.92
2019-03-11T08:13:21.787Z,51.73
2019-03-11T08:14:21.846Z,51.92
2019-03-11T08:16:14.838Z,51.73
2019-03-11T08:17:14.886Z,51.82
2019-03-11T08:19:07.860Z,52.11
2019-03-11T08:20:07.912Z,52.39
2019-03-11T08:22:00.966Z,52.29
2019-03-11T08:23:01.013Z,52.20
2019-03-11T08:24:54.002Z,52.77
2019-03-11T08:25:54.047Z,52.58
2019-03-11T08:27:47.022Z,52.48
2019-03-11T08:28:47.076Z,52.87
2019-03-11T08:30:40.060Z,52.29
2019-03-11T08:31:40.111Z,52.20
2019-03-11T08:33:33.081Z,52.20
2019-03-11T08:34:33.134Z,52.29
2019-03-11T08:36:26.120Z,52.29
2019-03-11T08:37:26.164Z,52.14
2019-03-11T08:39:19.160Z,52.70
2019-03-11T08:40:19.193Z,52.70
2019-03-11T08:42:12.696Z,52.89
2019-03-11T08:43:12.737Z,52.61
2019-03-11T08:45:05.711Z,52.61
2019-03-11T08:46:05.797Z,52.70
2019-03-11T08:47:58.745Z,52.61
2019-03-11T08:48:58.793Z,52.61
2019-03-11T08:50:51.793Z,52.23
2019-03-11T08:51:51.841Z,52.42
2019-03-11T08:53:44.814Z,52.70
2019-03-11T08:54:44.870Z,52.70
2019-03-11T08:56:37.972Z,53.27
2019-03-11T08:57:40.070Z,53.46
2019-03-11T08:59:30.869Z,53.37
2019-03-11T09:00:30.924Z,53.18
2019-03-11T09:02:23.927Z,53.37
2019-03-11T09:03:23.972Z,53.46
2019-03-11T09:05:16.962Z,53.39
2019-03-11T09:06:17.017Z,53.68
2019-03-11T09:08:10.001Z,53.96
2019-03-11T09:09:10.089Z,53.58
2019-03-11T09:11:03.032Z,55.29
2019-03-11T09:12:03.070Z,55.29
2019-03-11T09:13:56.050Z,55.76
2019-03-11T09:14:56.105Z,54.82
2019-03-11T09:16:49.093Z,54.53
2019-03-11T09:17:49.139Z,53.87
2019-03-11T09:19:42.119Z,53.18
2019-03-11T09:20:42.170Z,53.08
2019-03-11T09:22:35.176Z,52.04
2019-03-11T09:23:35.223Z,52.42
2019-03-11T09:25:28.204Z,52.42
2019-03-11T09:26:28.258Z,52.42
2019-03-11T09:28:21.310Z,52.89
2019-03-11T09:29:21.290Z,53.08
2019-03-11T09:31:14.298Z,53.27
2019-03-11T09:32:14.320Z,52.98
2019-03-11T09:34:07.294Z,53.11
2019-03-11T09:35:07.345Z,53.30
2019-03-11T09:37:00.334Z,52.73
2019-03-11T09:38:00.377Z,53.20
2019-03-11T09:39:53.361Z,52.83
2019-03-11T09:40:53.411Z,52.83
2019-03-11T09:42:46.902Z,53.02
2019-03-11T09:43:46.958Z,53.20
2019-03-11T09:45:39.935Z,53.02
2019-03-11T09:46:39.974Z,53.39
2019-03-11T09:48:32.966Z,53.02
2019-03-11T09:49:33.014Z,53.20
2019-03-11T09:51:26.000Z,53.20
2019-03-11T09:52:26.051Z,53.33
2019-03-11T09:54:19.045Z,53.70
2019-03-11T09:55:19.090Z,54.37
2019-03-11T09:57:12.077Z,55.32
2019-03-11T09:58:12.125Z,54.66
2019-03-11T10:00:05.102Z,54.46
2019-03-11T10:01:05.162Z,53.49
2019-03-11T10:02:58.138Z,53.02
2019-03-11T10:03:58.182Z,52.95
2019-03-11T10:05:51.159Z,53.14
2019-03-11T10:06:51.215Z,53.04
2019-03-11T10:08:44.214Z,52.92
2019-03-11T10:09:44.250Z,53.20
2019-03-11T10:11:37.269Z,52.92
2019-03-11T10:12:37.294Z,53.20
2019-03-11T10:14:30.300Z,53.11
2019-03-11T10:15:30.348Z,53.11
2019-03-11T10:17:23.337Z,52.45
2019-03-11T10:18:23.387Z,52.16
2019-03-11T10:20:16.360Z,52.28
2019-03-11T10:21:16.414Z,51.90
2019-03-11T10:23:09.424Z,51.43
2019-03-11T10:24:09.461Z,52.00
2019-03-11T10:26:02.438Z,53.23
2019-03-11T10:27:02.493Z,53.07
2019-03-11T10:28:55.479Z,56.51
2019-03-11T10:29:55.538Z,57.75
2019-03-11T10:31:48.509Z,59.36
2019-03-11T10:32:48.556Z,59.46
2019-03-11T10:34:41.540Z,61.26
2019-03-11T10:35:41.591Z,60.50
2019-03-11T10:37:34.584Z,60.31
2019-03-11T10:38:34.633Z,59.71
2019-03-11T10:40:27.609Z,59.91
2019-03-11T10:41:27.663Z,57.59
2019-03-11T10:43:20.651Z,54.27
2019-03-11T10:44:20.697Z,53.42
2019-03-11T10:46:13.683Z,53.83
2019-03-11T10:47:14.699Z,53.26
2019-03-11T10:49:06.725Z,56.58
2019-03-11T10:50:06.773Z,56.96
2019-03-11T10:51:59.752Z,55.94
2019-03-11T10:52:59.807Z,57.91
2019-03-11T10:54:52.804Z,56.42
2019-03-11T10:55:52.840Z,56.80
2019-03-11T10:57:45.826Z,56.99
2019-03-11T10:58:45.875Z,58.61
2019-03-11T11:00:38.860Z,58.63
2019-03-11T11:01:38.907Z,59.39
2019-03-11T11:03:31.897Z,58.25
2019-03-11T11:04:31.949Z,59.58
2019-03-11T11:06:24.933Z,59.87
2019-03-11T11:07:24.986Z,59.96
2019-03-11T11:09:17.964Z,61.48
2019-03-11T11:10:18.017Z,61.20
2019-03-11T11:12:10.999Z,61.77
2019-03-11T11:13:11.056Z,61.68
2019-03-11T11:15:04.044Z,64.43
2019-03-11T11:16:04.087Z,63.48
2019-03-11T11:17:57.079Z,66.71
2019-03-11T11:18:57.130Z,64.05
2019-03-11T11:20:50.111Z,65.19
2019-03-11T11:21:50.166Z,65.86
2019-03-11T11:23:43.155Z,63.01
2019-03-11T11:24:43.199Z,63.57
2019-03-11T11:26:36.187Z,62.62
2019-03-11T11:27:36.660Z,61.77
2019-03-11T11:29:29.221Z,62.12
2019-03-11T11:30:29.266Z,60.35
2019-03-11T11:32:22.252Z,60.50
2019-03-11T11:33:22.298Z,57.65
2019-03-11T11:35:15.282Z,56.23
2019-03-11T11:36:15.332Z,56.23
2019-03-11T11:38:08.328Z,55.06
2019-03-11T11:39:08.368Z,55.25
2019-03-11T11:41:01.351Z,55.66
2019-03-11T11:42:01.405Z,55.18
2019-03-11T11:43:54.396Z,55.76
2019-03-11T11:44:54.442Z,54.52
2019-03-11T11:46:47.416Z,53.76
2019-03-11T11:47:47.479Z,55.76
2019-03-11T11:49:40.463Z,56.45
2019-03-11T11:50:40.514Z,57.02
2019-03-11T11:52:33.505Z,58.73
2019-03-11T11:53:33.663Z,58.92
2019-03-11T11:55:26.552Z,55.71
2019-03-11T11:56:26.586Z,57.81
2019-03-11T11:58:19.595Z,62.18
2019-03-11T11:59:19.668Z,62.94
2019-03-11T12:01:12.641Z,62.34
2019-03-11T12:02:12.681Z,60.53
2019-03-11T12:04:05.679Z,57.97
2019-03-11T12:05:05.730Z,57.09
2019-03-11T12:06:58.722Z,57.28
2019-03-11T12:07:58.784Z,56.61
2019-03-11T12:09:51.761Z,57.37
2019-03-11T12:10:51.815Z,57.21
2019-03-11T12:12:44.802Z,58.32
2019-03-11T12:13:44.845Z,58.41
2019-03-11T12:15:37.836Z,57.18
2019-03-11T12:16:37.893Z,60.82
2019-03-11T12:18:30.862Z,61.20
2019-03-11T12:19:30.918Z,60.63
2019-03-11T12:21:23.908Z,62.05
2019-03-11T12:22:23.951Z,62.81
2019-03-11T12:24:16.960Z,64.37
2019-03-11T12:25:16.988Z,68.07
2019-03-11T12:27:09.975Z,73.49
2019-03-11T12:28:10.019Z,73.78
2019-03-11T12:30:03.009Z,73.40
2019-03-11T12:31:03.060Z,70.93
2019-03-11T12:32:56.032Z,70.74
2019-03-11T12:33:56.090Z,68.27
2019-03-11T12:35:49.080Z,66.55
2019-03-11T12:36:49.176Z,65.03
2019-03-11T12:38:42.121Z,64.37
2019-03-11T12:39:42.172Z,65.99
2019-03-11T12:41:35.162Z,66.08
2019-03-11T12:42:35.209Z,65.09
2019-03-11T12:44:28.213Z,62.05
2019-03-11T12:45:28.247Z,62.56
2019-03-11T12:47:21.236Z,60.47
2019-03-11T12:48:21.301Z,60.31
2019-03-11T12:50:14.911Z,62.72
2019-03-11T12:51:14.325Z,63.86
2019-03-11T12:53:07.323Z,65.45
2019-03-11T12:54:07.359Z,65.16
2019-03-11T12:56:00.343Z,67.54
2019-03-11T12:57:00.396Z,68.01
2019-03-11T12:58:53.372Z,65.92
2019-03-11T12:59:53.430Z,66.39
2019-03-11T13:01:46.415Z,66.02
2019-03-11T13:02:46.464Z,71.34
2019-03-11T13:04:39.442Z,71.06
2019-03-11T13:05:39.501Z,69.82
2019-03-11T13:07:32.487Z,71.91
2019-03-11T13:08:32.535Z,73.44
2019-03-11T13:10:25.533Z,75.15
2019-03-11T13:11:25.578Z,73.82
2019-03-11T13:13:19.254Z,74.58
2019-03-11T13:14:18.617Z,75.24
2019-03-11T13:16:11.604Z,78.29
2019-03-11T13:17:11.650Z,76.10
2019-03-11T13:19:12.835Z,75.34
2019-03-11T13:20:04.685Z,77.43
2019-03-11T13:21:57.674Z,77.43
2019-03-11T13:22:57.791Z,76.86
2019-03-11T13:24:50.703Z,77.53
2019-03-11T13:25:50.758Z,79.62
2019-03-11T13:27:43.749Z,78.67
2019-03-11T13:28:43.794Z,78.48
2019-03-11T13:30:36.807Z,77.01
2019-03-11T13:31:36.838Z,75.30
2019-03-11T13:33:29.831Z,75.49
2019-03-11T13:34:29.880Z,75.59
2019-03-11T13:36:22.887Z,72.45
2019-03-11T13:37:22.940Z,72.51
2019-03-11T13:39:15.931Z,65.95
2019-03-11T13:40:16.006Z,68.13
2019-03-11T13:42:09.483Z,68.42
2019-03-11T13:43:09.533Z,65.47
2019-03-11T13:45:02.515Z,70.51
2019-03-11T13:46:02.564Z,70.61
2019-03-11T13:47:55.546Z,69.85
2019-03-11T13:48:55.594Z,70.89
2019-03-11T13:50:48.577Z,68.36
2019-03-11T13:51:48.629Z,69.79
2019-03-11T13:53:41.611Z,69.02
2019-03-11T13:54:41.666Z,72.86
2019-03-11T13:56:34.953Z,71.63
2019-03-11T13:57:34.723Z,75.15
2019-03-11T13:59:27.696Z,77.34
2019-03-11T14:00:27.758Z,80.47
2019-03-11T14:02:20.750Z,80.00
2019-03-11T14:03:20.799Z,76.10
2019-03-11T14:05:13.792Z,77.72
2019-03-11T14:06:13.848Z,77.05
2019-03-11T14:08:06.840Z,77.43
2019-03-11T14:09:06.903Z,78.19
2019-03-11T14:10:59.878Z,77.43
2019-03-11T14:11:59.941Z,78.96
2019-03-11T14:13:53.059Z,76.86
2019-03-11T14:14:52.975Z,76.57
2019-03-11T14:16:45.967Z,77.53
2019-03-11T14:17:46.019Z,76.76
2019-03-11T14:19:39.027Z,75.15
2019-03-11T14:20:39.062Z,75.15
2019-03-11T14:22:32.045Z,76.35
2019-03-11T14:23:32.098Z,75.02
2019-03-11T14:25:25.096Z,72.64
2019-03-11T14:26:25.142Z,71.50
2019-03-11T14:28:18.141Z,71.27
2019-03-11T14:29:18.191Z,72.55
2019-03-11T14:31:11.166Z,73.40
2019-03-11T14:32:11.219Z,71.97
2019-03-11T14:34:04.202Z,74.16
2019-03-11T14:35:04.254Z,72.83
2019-03-11T14:36:57.239Z,73.40
2019-03-11T14:37:57.289Z,73.59
2019-03-11T14:39:50.277Z,74.35
2019-03-11T14:40:50.322Z,72.83
2019-03-11T14:42:43.817Z,73.11
2019-03-11T14:43:43.895Z,73.02
2019-03-11T14:45:36.873Z,73.49
2019-03-11T14:46:36.925Z,72.64
2019-03-11T14:48:29.920Z,72.55
2019-03-11T14:49:29.969Z,70.23
2019-03-11T14:51:22.955Z,67.00
2019-03-11T14:52:23.013Z,65.57
2019-03-11T14:54:15.995Z,61.83
2019-03-11T14:55:16.044Z,59.84
2019-03-11T14:57:09.024Z,53.47
2019-03-11T14:58:09.087Z,53.47
2019-03-11T15:00:02.071Z,53.54
2019-03-11T15:01:02.117Z,52.50
2019-03-11T15:02:55.097Z,50.60
2019-03-11T15:03:55.149Z,50.70
2019-03-11T15:05:48.146Z,48.61
2019-03-11T15:06:48.195Z,48.32
2019-03-11T15:08:41.181Z,48.61
2019-03-11T15:09:50.983Z,48.51
2019-03-11T15:11:34.230Z,47.92
2019-03-11T15:12:34.273Z,47.92
2019-03-11T15:14:27.260Z,47.47
2019-03-11T15:15:27.305Z,47.37
2019-03-11T15:17:20.287Z,47.37
2019-03-11T15:18:20.340Z,47.66
2019-03-11T15:20:13.340Z,47.94
2019-03-11T15:21:13.384Z,48.32
2019-03-11T15:23:18.993Z,48.41
2019-03-11T15:24:06.432Z,48.41
2019-03-11T15:25:59.434Z,48.22
2019-03-11T15:26:59.455Z,47.94
2019-03-11T15:28:52.435Z,48.22
2019-03-11T15:29:52.489Z,48.51
2019-03-11T15:31:45.482Z,47.47
2019-03-11T15:32:45.532Z,47.37
2019-03-11T15:34:38.577Z,47.47
2019-03-11T15:35:38.561Z,48.22
2019-03-11T15:37:31.564Z,47.56
2019-03-11T15:38:31.594Z,47.56
2019-03-11T15:40:24.583Z,48.51
2019-03-11T15:41:24.632Z,48.80
2019-03-11T15:43:17.608Z,48.70
2019-03-11T15:44:17.663Z,48.32
2019-03-11T15:46:10.657Z,49.65
2019-03-11T15:47:10.702Z,48.80
2019-03-11T15:49:03.700Z,49.37
2019-03-11T15:50:03.748Z,50.12
2019-03-11T15:51:56.749Z,49.65
2019-03-11T15:52:56.854Z,50.03
2019-03-11T15:54:49.773Z,49.46
2019-03-11T15:55:49.826Z,49.74
2019-03-11T15:57:42.820Z,49.74
2019-03-11T15:58:42.865Z,49.65
2019-03-11T16:00:35.837Z,49.84
2019-03-11T16:01:35.893Z,48.99
2019-03-11T16:03:36.164Z,49.93
2019-03-11T16:04:28.929Z,49.74
2019-03-11T16:06:21.910Z,49.27
2019-03-11T16:07:21.958Z,50.12
2019-03-11T16:09:18.997Z,48.89
2019-03-11T16:10:16.986Z,49.27
2019-03-11T16:12:07.978Z,48.41
2019-03-11T16:13:08.027Z,48.32
2019-03-11T16:15:01.018Z,47.85
2019-03-11T16:16:01.058Z,47.94
2019-03-11T16:17:54.043Z,47.75
2019-03-11T16:18:54.094Z,48.41
2019-03-11T16:20:47.081Z,48.13
2019-03-11T16:21:47.136Z,48.61
2019-03-11T16:23:40.106Z,48.51
2019-03-11T16:24:40.159Z,48.70
2019-03-11T16:26:33.145Z,48.89
2019-03-11T16:27:33.190Z,49.18
2019-03-11T16:29:26.172Z,50.12
2019-03-11T16:30:26.225Z,50.51
2019-03-11T16:32:19.229Z,50.51
2019-03-11T16:33:19.268Z,50.51
2019-03-11T16:35:12.241Z,49.93
2019-03-11T16:36:12.302Z,48.89
2019-03-11T16:38:05.279Z,48.89
2019-03-11T16:39:05.329Z,48.80
2019-03-11T16:40:58.363Z,48.61
2019-03-11T16:41:58.366Z,48.51
2019-03-11T16:43:51.348Z,48.51
2019-03-11T16:44:51.392Z,48.61
2019-03-11T16:46:44.393Z,47.75
2019-03-11T16:47:44.440Z,47.94
2019-03-11T16:49:37.424Z,47.47
2019-03-11T16:50:37.469Z,47.66
2019-03-11T16:52:30.452Z,47.09
2019-03-11T16:53:30.591Z,46.70
2019-03-11T16:55:23.489Z,46.90
2019-03-11T16:56:23.548Z,46.99
2019-03-11T16:58:16.527Z,46.51
2019-03-11T16:59:16.575Z,46.97
2019-03-11T17:01:09.552Z,47.25
2019-03-11T17:02:09.607Z,47.16
2019-03-11T17:04:02.617Z,47.34
2019-03-11T17:05:02.655Z,47.25
2019-03-11T17:06:55.722Z,47.44
2019-03-11T17:07:55.743Z,47.44
2019-03-11T17:09:48.738Z,47.63
2019-03-11T17:10:48.754Z,47.73
2019-03-11T17:12:41.753Z,47.16
2019-03-11T17:13:41.793Z,47.16
2019-03-11T17:15:34.841Z,48.11
2019-03-11T17:16:34.873Z,48.39
2019-03-11T17:18:27.823Z,48.77
2019-03-11T17:19:27.930Z,49.82
2019-03-11T17:21:20.944Z,49.72
2019-03-11T17:22:20.953Z,49.63
2019-03-11T17:24:13.931Z,48.77
2019-03-11T17:25:13.941Z,48.30
2019-03-11T17:27:06.970Z,48.49
2019-03-11T17:28:07.008Z,48.39
2019-03-11T17:29:59.986Z,48.77
2019-03-11T17:31:00.031Z,48.11
2019-03-11T17:32:53.012Z,47.92
2019-03-11T17:33:53.098Z,48.30
2019-03-11T17:35:46.059Z,47.63
2019-03-11T17:36:46.101Z,47.53
2019-03-11T17:38:39.210Z,47.73
2019-03-11T17:39:39.139Z,47.63
2019-03-11T17:41:32.132Z,48.20
2019-03-11T17:42:32.196Z,48.01
2019-03-11T17:44:25.334Z,48.20
2019-03-11T17:45:25.210Z,48.86
2019-03-11T17:47:18.207Z,48.77
2019-03-11T17:48:18.882Z,48.49
2019-03-11T17:50:11.238Z,48.49
2019-03-11T17:51:11.287Z,48.68
2019-03-11T17:53:04.303Z,48.86
2019-03-11T17:54:04.314Z,48.96
2019-03-11T17:55:57.283Z,49.15
2019-03-11T17:56:57.339Z,48.86
2019-03-11T17:58:50.325Z,49.15
2019-03-11T17:59:50.368Z,49.53
2019-03-11T18:01:43.342Z,49.53
2019-03-11T18:02:43.401Z,49.72
2019-03-11T18:04:36.385Z,49.24
2019-03-11T18:05:36.433Z,49.43
2019-03-11T18:07:29.430Z,48.96
2019-03-11T18:08:29.466Z,48.96
2019-03-11T18:10:22.455Z,48.96
2019-03-11T18:11:22.506Z,48.39
2019-03-11T18:13:15.496Z,48.39
2019-03-11T18:14:15.686Z,48.77
2019-03-11T18:16:08.521Z,48.30
2019-03-11T18:17:08.567Z,48.49
2019-03-11T18:19:01.548Z,48.22
2019-03-11T18:20:01.619Z,48.30
2019-03-11T18:21:54.571Z,47.92
2019-03-11T18:22:54.631Z,48.30
2019-03-11T18:24:47.609Z,48.51
2019-03-11T18:25:47.668Z,48.51
2019-03-11T18:27:42.134Z,49.08
2019-03-11T18:28:42.342Z,48.41
2019-03-11T18:30:35.242Z,48.99
2019-03-11T18:31:35.284Z,48.80
2019-03-11T18:33:28.267Z,49.55